Time;durP1;ratioP1;P1;durP2;ratioP2;P2;SDS_P1;SDS_P2;PMS_P1;PMS_P2;Temp;Humidity;BMP_temperature;BMP_pressure;BME280_temperature;BME280_humidity;BME280_pressure;Samples;Min_cycle;Max_cycle;Signal;HPM_P1;HPM_P2
2022/10/01 00:00:19;;;;;;;7.00;3.10;;;11.20;99.90;;;;;;5071568;28;20024;-73
2022/10/01 00:02:45;;;;;;;6.75;3.08;;;11.10;99.90;;;;;;5071517;28;20021;-74
2022/10/01 00:05:11;;;;;;;4.43;2.70;;;11.10;99.90;;;;;;5071505;28;20024;-72
2022/10/01 00:07:39;;;;;;;12.18;3.55;;;11.20;99.90;;;;;;5073035;28;20151;-76
2022/10/01 00:10:06;;;;;;;4.97;2.70;;;11.10;99.90;;;;;;5055258;28;21135;-76
2022/10/01 00:12:32;;;;;;;5.43;3.35;;;11.20;99.90;;;;;;5071685;28;20099;-73
2022/10/01 00:14:58;;;;;;;8.93;3.30;;;11.10;99.90;;;;;;5071772;28;20028;-73
2022/10/01 00:17:23;;;;;;;7.10;3.30;;;11.10;99.90;;;;;;5071667;28;20056;-72
2022/10/01 00:19:49;;;;;;;7.18;2.75;;;11.10;99.90;;;;;;5071901;28;21360;-75
2022/10/01 00:22:15;;;;;;;5.90;3.00;;;11.10;99.90;;;;;;5071840;28;20065;-74
2022/10/01 00:24:41;;;;;;;6.15;2.90;;;11.10;99.90;;;;;;5073788;28;20096;-74
2022/10/01 00:27:06;;;;;;;5.07;2.90;;;11.10;99.90;;;;;;5076327;28;20036;-73
2022/10/01 00:29:32;;;;;;;4.55;2.60;;;11.10;99.90;;;;;;5074173;28;20040;-73
2022/10/01 00:31:57;;;;;;;5.93;2.95;;;11.10;99.90;;;;;;5075336;28;20693;-73
2022/10/01 00:34:23;;;;;;;6.85;2.97;;;11.10;99.90;;;;;;5074935;28;20044;-74
2022/10/01 00:36:49;;;;;;;3.65;2.47;;;11.10;99.90;;;;;;5075298;28;20017;-74
2022/10/01 00:39:15;;;;;;;10.70;2.90;;;11.10;99.90;;;;;;5075336;28;20023;-74
2022/10/01 00:41:41;;;;;;;5.78;2.67;;;11.10;99.90;;;;;;5073200;28;20051;-69
2022/10/01 00:44:26;;;;;;;4.43;2.70;;;11.10;99.90;;;;;;5075663;28;20653;-73
2022/10/01 00:46:54;;;;;;;6.10;2.80;;;11.20;99.90;;;;;;5073821;28;20048;-75
2022/10/01 00:49:26;;;;;;;7.72;3.00;;;11.20;99.90;;;;;;5075225;28;20064;-73
2022/10/01 00:51:56;;;;;;;9.15;3.03;;;11.20;99.90;;;;;;5074875;28;20025;-75
2022/10/01 00:54:36;;;;;;;6.35;3.03;;;11.20;99.90;;;;;;5075000;28;20063;-74
2022/10/01 00:57:04;;;;;;;4.38;2.55;;;11.20;99.90;;;;;;5075123;28;20049;-75
2022/10/01 00:59:30;;;;;;;3.50;2.40;;;11.20;99.90;;;;;;5073029;28;20017;-74
2022/10/01 01:01:56;;;;;;;3.78;2.78;;;11.20;99.90;;;;;;5073876;28;20025;-74
2022/10/01 01:04:22;;;;;;;8.27;3.03;;;11.30;99.90;;;;;;5073087;28;20017;-74
2022/10/01 01:06:54;;;;;;;4.93;2.60;;;11.20;99.90;;;;;;5074660;28;20036;-73
2022/10/01 01:09:22;;;;;;;4.53;2.42;;;11.30;99.90;;;;;;5074793;28;20040;-75
2022/10/01 01:11:57;;;;;;;5.95;2.58;;;11.30;99.90;;;;;;5056870;28;20052;-75
2022/10/01 01:15:03;;;;;;;5.13;2.92;;;11.30;99.90;;;;;;5074066;28;20017;-75
2022/10/01 01:17:46;;;;;;;6.65;3.22;;;11.30;99.90;;;;;;5046979;28;20037;-75
2022/10/01 01:20:12;;;;;;;9.30;3.42;;;11.30;99.90;;;;;;5074288;28;20082;-73
2022/10/01 01:22:46;;;;;;;5.95;3.00;;;11.30;99.90;;;;;;5074740;28;20056;-75
2022/10/01 01:25:21;;;;;;;4.47;2.92;;;11.30;99.90;;;;;;5074895;28;20111;-73
2022/10/01 01:28:17;;;;;;;9.73;3.33;;;11.30;99.90;;;;;;5055821;28;20040;-76
2022/10/01 01:30:43;;;;;;;4.50;2.85;;;11.30;99.90;;;;;;5076048;28;20131;-74
2022/10/01 01:33:16;;;;;;;5.05;2.97;;;11.30;99.90;;;;;;5074895;28;20518;-75
2022/10/01 01:35:51;;;;;;;5.72;3.38;;;11.30;99.90;;;;;;5072901;28;20047;-74
2022/10/01 01:38:23;;;;;;;7.32;3.50;;;11.30;99.90;;;;;;5073155;28;20066;-76
2022/10/01 01:40:54;;;;;;;9.13;2.72;;;11.30;99.90;;;;;;5072614;28;20016;-76
2022/10/01 01:43:28;;;;;;;7.05;3.50;;;11.40;99.90;;;;;;5073857;28;20104;-75
2022/10/01 01:45:54;;;;;;;7.80;3.15;;;11.40;99.90;;;;;;5073097;28;20053;-76
2022/10/01 01:48:23;;;;;;;3.90;2.80;;;11.40;99.90;;;;;;5073701;28;20029;-75
2022/10/01 01:51:13;;;;;;;6.63;3.40;;;11.40;99.90;;;;;;5072693;28;20024;-75
2022/10/01 01:53:40;;;;;;;9.10;3.22;;;11.40;99.90;;;;;;5072964;28;20510;-69
2022/10/01 01:56:06;;;;;;;5.00;3.20;;;11.40;99.90;;;;;;5073278;28;20028;-74
2022/10/01 01:58:34;;;;;;;5.10;2.88;;;11.40;99.90;;;;;;5072266;28;20112;-76
2022/10/01 02:01:01;;;;;;;5.70;3.10;;;11.30;99.90;;;;;;5074025;28;20037;-74
2022/10/01 02:03:29;;;;;;;7.18;3.30;;;11.30;99.90;;;;;;5073698;28;20029;-74
2022/10/01 02:06:24;;;;;;;7.13;3.63;;;11.30;99.90;;;;;;5074017;28;20021;-73
2022/10/01 02:09:02;;;;;;;5.20;3.42;;;11.20;99.90;;;;;;5073123;28;20032;-74
2022/10/01 02:11:37;;;;;;;7.70;3.88;;;11.10;99.90;;;;;;5075784;28;20048;-75
2022/10/01 02:14:27;;;;;;;6.00;3.58;;;11.10;99.90;;;;;;5073934;28;20021;-75
2022/10/01 02:17:01;;;;;;;8.18;3.90;;;11.00;99.90;;;;;;5073726;28;20062;-74
2022/10/01 02:19:57;;;;;;;5.15;3.55;;;10.90;99.90;;;;;;5071166;28;20040;-73
2022/10/01 02:22:49;;;;;;;5.85;3.00;;;10.90;99.90;;;;;;5065998;28;20120;-73
2022/10/01 02:25:18;;;;;;;8.10;4.22;;;10.80;99.90;;;;;;5073320;28;20024;-72
2022/10/01 02:28:04;;;;;;;7.68;4.28;;;10.70;99.90;;;;;;5073249;28;20036;-76
2022/10/01 02:30:34;;;;;;;8.25;4.10;;;10.70;99.90;;;;;;5073001;28;20056;-74
2022/10/01 02:33:01;;;;;;;8.57;4.90;;;10.70;99.90;;;;;;5073660;28;20024;-72
2022/10/01 02:35:30;;;;;;;6.72;4.15;;;10.70;99.90;;;;;;5071593;28;20021;-73
2022/10/01 02:38:00;;;;;;;9.35;5.03;;;10.60;99.90;;;;;;5071690;28;20032;-75
2022/10/01 02:40:29;;;;;;;11.85;5.03;;;10.60;99.90;;;;;;5073455;28;20029;-76
2022/10/01 02:43:02;;;;;;;9.65;4.85;;;10.60;99.90;;;;;;5072553;28;20045;-74
2022/10/01 02:45:30;;;;;;;9.10;5.10;;;10.60;99.90;;;;;;5073398;28;20027;-73
2022/10/01 02:48:04;;;;;;;7.68;4.72;;;10.60;99.90;;;;;;5073953;28;20426;-73
2022/10/01 02:50:41;;;;;;;12.82;5.90;;;10.50;99.90;;;;;;5072562;28;20049;-72
2022/10/01 02:53:19;;;;;;;11.93;5.53;;;10.50;99.90;;;;;;5073188;28;20115;-76
2022/10/01 02:55:46;;;;;;;11.18;5.72;;;10.50;99.90;;;;;;5073249;28;20030;-74
2022/10/01 02:58:12;;;;;;;9.10;5.10;;;10.50;99.90;;;;;;5055531;28;20147;-76
2022/10/01 03:00:38;;;;;;;11.40;6.50;;;10.50;99.90;;;;;;5071612;28;20377;-71
2022/10/01 03:03:04;;;;;;;10.45;5.82;;;10.40;99.90;;;;;;5072537;28;20076;-76
2022/10/01 03:05:30;;;;;;;11.50;6.00;;;10.40;99.90;;;;;;5072276;28;20055;-72
2022/10/01 03:07:55;;;;;;;10.85;5.63;;;10.40;99.90;;;;;;5072845;28;20021;-73
2022/10/01 03:10:21;;;;;;;10.88;6.00;;;10.40;99.90;;;;;;5072349;28;20069;-73
2022/10/01 03:12:47;;;;;;;12.02;6.32;;;10.40;99.90;;;;;;5071938;28;20055;-70
2022/10/01 03:15:18;;;;;;;13.77;6.22;;;10.40;99.90;;;;;;5072744;28;20055;-73
2022/10/01 03:17:44;;;;;;;13.50;7.07;;;10.30;99.90;;;;;;5072715;28;20063;-73
2022/10/01 03:20:11;;;;;;;15.60;7.18;;;10.30;99.90;;;;;;5071816;28;20087;-72
2022/10/01 03:22:37;;;;;;;11.52;6.80;;;10.30;99.90;;;;;;5072331;28;20071;-74
2022/10/01 03:25:03;;;;;;;12.80;7.20;;;10.30;99.90;;;;;;5071179;28;20030;-71
2022/10/01 03:27:29;;;;;;;12.23;6.60;;;10.30;99.90;;;;;;5070996;28;20021;-73
2022/10/01 03:29:55;;;;;;;12.05;7.25;;;10.30;99.90;;;;;;5072025;28;20475;-73
2022/10/01 03:32:21;;;;;;;17.63;7.78;;;10.30;99.90;;;;;;5071942;28;20129;-71
2022/10/01 03:34:47;;;;;;;15.40;7.88;;;10.20;99.90;;;;;;5071745;28;20021;-73
2022/10/01 03:37:13;;;;;;;15.30;8.93;;;10.20;99.90;;;;;;5072002;28;20041;-74
2022/10/01 03:39:39;;;;;;;22.27;9.23;;;10.20;99.90;;;;;;5073023;28;20102;-71
2022/10/01 03:42:05;;;;;;;22.52;9.20;;;10.20;99.90;;;;;;5072011;28;20029;-74
2022/10/01 03:44:32;;;;;;;21.45;9.15;;;10.20;99.90;;;;;;5072445;28;20017;-73
2022/10/01 03:46:58;;;;;;;17.40;10.02;;;10.20;99.90;;;;;;5071784;28;20028;-74
2022/10/01 03:49:23;;;;;;;22.13;10.27;;;10.20;99.90;;;;;;5071705;28;20044;-74
2022/10/01 03:51:49;;;;;;;17.75;10.40;;;10.20;99.90;;;;;;5072091;28;20029;-74
2022/10/01 03:54:20;;;;;;;20.40;9.73;;;10.20;99.90;;;;;;5071430;28;20066;-76
2022/10/01 03:56:47;;;;;;;19.67;9.73;;;10.10;99.90;;;;;;5062809;28;20050;-73
2022/10/01 03:59:13;;;;;;;18.50;9.15;;;10.10;99.90;;;;;;5051057;28;20028;-75
2022/10/01 04:01:39;;;;;;;17.38;9.52;;;10.10;99.90;;;;;;5051758;28;20043;-74
2022/10/01 04:04:05;;;;;;;17.55;9.63;;;10.00;99.90;;;;;;5049658;28;20021;-71
2022/10/01 04:06:31;;;;;;;14.63;8.23;;;10.00;99.90;;;;;;5051373;28;20053;-73
2022/10/01 04:08:57;;;;;;;16.52;8.90;;;10.00;99.90;;;;;;5050782;28;20106;-73
2022/10/01 04:11:23;;;;;;;18.90;9.57;;;10.00;99.90;;;;;;5033986;28;20029;-75
2022/10/01 04:13:49;;;;;;;14.70;8.90;;;10.00;99.90;;;;;;5051658;28;20036;-76
2022/10/01 04:16:15;;;;;;;17.65;9.30;;;9.90;99.90;;;;;;5050019;28;20093;-73
2022/10/01 04:18:41;;;;;;;18.95;9.07;;;9.90;99.90;;;;;;5051578;28;20867;-71
2022/10/01 04:21:07;;;;;;;15.23;9.05;;;10.00;99.90;;;;;;5051631;28;20045;-72
2022/10/01 04:23:32;;;;;;;17.23;8.05;;;9.90;99.90;;;;;;5051640;28;20045;-73
2022/10/01 04:26:01;;;;;;;16.73;8.52;;;9.90;99.90;;;;;;5050937;28;20029;-73
2022/10/01 04:28:27;;;;;;;14.80;7.43;;;9.90;99.90;;;;;;5051569;28;20693;-70
2022/10/01 04:31:23;;;;;;;18.50;8.32;;;9.90;99.90;;;;;;5050854;28;20025;-75
2022/10/01 04:33:39;;;;;;;16.15;8.27;;;9.90;99.90;;;;;;5051625;28;20058;-70
2022/10/01 04:36:05;;;;;;;16.42;7.70;;;10.00;99.90;;;;;;5049700;28;20033;-70
2022/10/01 04:38:31;;;;;;;15.02;7.85;;;10.00;99.90;;;;;;5053041;28;20053;-71
2022/10/01 04:40:56;;;;;;;12.82;8.02;;;9.90;99.90;;;;;;5051452;28;20061;-73
2022/10/01 04:43:25;;;;;;;17.83;8.18;;;9.90;99.90;;;;;;5050683;28;20113;-71
2022/10/01 04:45:50;;;;;;;14.82;7.70;;;9.90;99.90;;;;;;5033742;28;20021;-70
2022/10/01 04:48:16;;;;;;;15.50;8.32;;;9.90;99.90;;;;;;5051164;28;20483;-72
2022/10/01 04:50:42;;;;;;;15.43;7.80;;;9.90;99.90;;;;;;5051522;28;20052;-72
2022/10/01 04:53:08;;;;;;;20.83;8.38;;;9.90;99.90;;;;;;5051396;28;20045;-73
2022/10/01 04:55:33;;;;;;;17.08;8.10;;;9.90;99.90;;;;;;5051535;28;20017;-68
2022/10/01 04:57:59;;;;;;;12.55;7.35;;;9.90;99.90;;;;;;5068272;28;20116;-70
2022/10/01 05:00:25;;;;;;;15.75;7.43;;;9.90;99.90;;;;;;5072284;28;20035;-71
2022/10/01 05:02:52;;;;;;;11.48;7.30;;;9.90;99.90;;;;;;5071669;28;20464;-71
2022/10/01 05:05:20;;;;;;;14.63;8.05;;;9.90;99.90;;;;;;5052409;28;20025;-73
2022/10/01 05:07:47;;;;;;;21.70;6.47;;;9.90;99.90;;;;;;5071008;28;20029;-78
2022/10/01 05:10:15;;;;;;;13.50;6.85;;;9.90;99.90;;;;;;5071999;28;20495;-74
2022/10/01 05:12:42;;;;;;;13.73;7.43;;;9.90;99.90;;;;;;5073381;28;20499;-72
2022/10/01 05:15:09;;;;;;;13.48;6.20;;;9.90;99.90;;;;;;5075214;28;20021;-71
2022/10/01 05:17:35;;;;;;;11.82;6.70;;;9.90;99.90;;;;;;5075780;28;20094;-71
2022/10/01 05:20:02;;;;;;;12.60;6.15;;;9.90;99.90;;;;;;5074501;28;20103;-72
2022/10/01 05:22:28;;;;;;;10.23;6.10;;;9.90;99.90;;;;;;5074549;28;20036;-71
2022/10/01 05:24:53;;;;;;;11.80;6.57;;;9.90;99.90;;;;;;5073587;28;20404;-71
2022/10/01 05:27:19;;;;;;;13.40;6.15;;;9.90;99.90;;;;;;5073361;28;20092;-72
2022/10/01 05:29:45;;;;;;;14.00;7.40;;;9.90;99.90;;;;;;5074539;28;20028;-73
2022/10/01 05:32:11;;;;;;;11.43;7.05;;;9.90;99.90;;;;;;5056196;28;20124;-72
2022/10/01 05:34:39;;;;;;;11.00;6.00;;;10.00;99.90;;;;;;5074795;28;20403;-72
2022/10/01 05:37:05;;;;;;;12.30;6.47;;;9.90;99.90;;;;;;5074702;28;20020;-73
2022/10/01 05:39:31;;;;;;;11.75;5.85;;;10.00;99.90;;;;;;5074766;28;20459;-72
2022/10/01 05:41:58;;;;;;;11.55;5.72;;;10.00;99.90;;;;;;5074618;28;20108;-71
2022/10/01 05:44:24;;;;;;;9.90;5.53;;;10.00;99.90;;;;;;5074499;28;20032;-72
2022/10/01 05:46:51;;;;;;;8.77;5.35;;;10.00;99.90;;;;;;5071466;28;20024;-74
2022/10/01 05:49:23;;;;;;;14.50;6.82;;;10.00;99.90;;;;;;5073541;28;20049;-74
2022/10/01 05:51:49;;;;;;;20.52;5.45;;;10.00;99.90;;;;;;5072907;28;20043;-74
2022/10/01 05:54:18;;;;;;;13.90;7.05;;;10.00;99.90;;;;;;5071602;28;20025;-74
2022/10/01 05:56:44;;;;;;;10.45;5.85;;;10.00;99.90;;;;;;5073780;28;20064;-72
2022/10/01 05:59:10;;;;;;;10.55;5.65;;;10.00;99.90;;;;;;5074299;28;20028;-77
2022/10/01 06:01:37;;;;;;;14.15;6.47;;;10.00;99.90;;;;;;5073914;28;20042;-74
2022/10/01 06:04:02;;;;;;;11.77;5.90;;;10.00;99.90;;;;;;5073964;28;20472;-74
2022/10/01 06:06:28;;;;;;;9.68;6.05;;;9.90;99.90;;;;;;5071718;28;20025;-73
2022/10/01 06:08:54;;;;;;;10.65;5.78;;;10.00;99.90;;;;;;5074741;28;20045;-74
2022/10/01 06:11:22;;;;;;;12.27;6.22;;;10.00;99.90;;;;;;5074021;28;20077;-75
2022/10/01 06:13:48;;;;;;;10.30;5.55;;;10.00;99.90;;;;;;5055871;28;20028;-75
2022/10/01 06:16:14;;;;;;;8.00;5.38;;;10.00;99.90;;;;;;5073672;28;20104;-75
2022/10/01 06:18:40;;;;;;;12.10;5.88;;;10.10;99.90;;;;;;5075529;28;20029;-76
2022/10/01 06:21:06;;;;;;;10.55;5.70;;;10.10;99.90;;;;;;5074189;28;20029;-74
2022/10/01 06:23:32;;;;;;;9.15;5.30;;;10.00;99.90;;;;;;5072617;28;20021;-71
2022/10/01 06:25:59;;;;;;;9.38;5.38;;;10.00;99.90;;;;;;5072963;28;20030;-71
2022/10/01 06:28:25;;;;;;;10.20;5.22;;;10.00;99.90;;;;;;5072472;28;20063;-73
2022/10/01 06:30:51;;;;;;;12.93;5.28;;;10.10;99.90;;;;;;5072951;28;20036;-69
2022/10/01 06:33:17;;;;;;;9.98;5.25;;;10.10;99.90;;;;;;5073152;28;20037;-71
2022/10/01 06:35:48;;;;;;;13.73;6.43;;;10.10;99.90;;;;;;5073935;28;20035;-71
2022/10/01 06:38:16;;;;;;;12.82;5.95;;;10.10;99.90;;;;;;5075339;28;20058;-71
2022/10/01 06:40:42;;;;;;;9.05;5.22;;;10.10;99.90;;;;;;5072665;28;20055;-71
2022/10/01 06:43:08;;;;;;;9.45;5.63;;;10.10;99.90;;;;;;5072556;28;20017;-68
2022/10/01 06:45:37;;;;;;;7.28;4.70;;;10.10;99.90;;;;;;5072599;28;20021;-70
2022/10/01 06:48:03;;;;;;;7.07;4.28;;;10.10;99.90;;;;;;5072657;28;20028;-73
2022/10/01 06:50:30;;;;;;;11.38;4.65;;;10.00;99.90;;;;;;5071253;28;20040;-71
2022/10/01 06:53:00;;;;;;;9.77;5.22;;;10.10;99.90;;;;;;5073280;28;20033;-71
2022/10/01 06:55:31;;;;;;;8.18;4.53;;;10.10;99.90;;;;;;5054825;28;20039;-74
2022/10/01 06:57:58;;;;;;;11.80;5.38;;;10.10;99.90;;;;;;5069023;28;20049;-68
2022/10/01 07:00:26;;;;;;;7.35;4.78;;;10.10;99.90;;;;;;5071437;28;20101;-71
2022/10/01 07:02:52;;;;;;;7.38;4.30;;;10.10;99.90;;;;;;5071310;28;20036;-70
2022/10/01 07:05:17;;;;;;;7.82;4.65;;;10.20;99.90;;;;;;5071889;28;20093;-70
2022/10/01 07:07:43;;;;;;;7.40;4.80;;;10.10;99.90;;;;;;5062426;28;20075;-70
2022/10/01 07:10:10;;;;;;;9.70;5.50;;;10.20;99.90;;;;;;5071949;28;20033;-72
2022/10/01 07:12:36;;;;;;;13.07;5.80;;;10.20;99.90;;;;;;5072236;28;20020;-70
2022/10/01 07:15:04;;;;;;;9.13;5.03;;;10.20;99.90;;;;;;5072372;28;20024;-69
2022/10/01 07:17:30;;;;;;;8.65;4.88;;;10.20;99.90;;;;;;5072281;28;20025;-70
2022/10/01 07:20:00;;;;;;;10.82;6.45;;;10.20;99.90;;;;;;5071806;28;20074;-71
2022/10/01 07:22:26;;;;;;;11.95;6.38;;;10.20;99.90;;;;;;5071418;28;20021;-70
2022/10/01 07:24:52;;;;;;;15.10;6.22;;;10.20;99.90;;;;;;5071192;28;20052;-68
2022/10/01 07:27:18;;;;;;;12.18;6.28;;;10.20;99.90;;;;;;5072922;28;20033;-71
2022/10/01 07:29:44;;;;;;;10.50;5.88;;;10.30;99.90;;;;;;5070970;28;20043;-70
2022/10/01 07:32:10;;;;;;;8.45;5.05;;;10.30;99.90;;;;;;5072504;28;20080;-68
2022/10/01 07:34:39;;;;;;;10.18;5.75;;;10.20;99.90;;;;;;5071323;28;20064;-70
2022/10/01 07:37:06;;;;;;;10.40;5.88;;;10.30;99.90;;;;;;5071056;28;20035;-72
2022/10/01 07:39:31;;;;;;;7.53;5.22;;;10.30;99.90;;;;;;5069418;28;20064;-70
2022/10/01 07:41:57;;;;;;;12.05;6.63;;;10.40;99.90;;;;;;5072142;28;20473;-73
2022/10/01 07:44:24;;;;;;;11.35;6.25;;;10.40;99.90;;;;;;5071783;28;20080;-75
2022/10/01 07:46:50;;;;;;;10.15;5.72;;;10.40;99.90;;;;;;5070251;28;20032;-70
2022/10/01 07:49:15;;;;;;;11.63;5.57;;;10.40;99.90;;;;;;5070420;28;20037;-71
2022/10/01 07:51:44;;;;;;;10.77;6.80;;;10.50;99.90;;;;;;5069706;28;20060;-72
2022/10/01 07:54:10;;;;;;;11.27;6.28;;;10.50;99.90;;;;;;5072295;28;20059;-73
2022/10/01 07:56:36;;;;;;;12.18;6.40;;;10.50;99.90;;;;;;5062397;28;20100;-73
2022/10/01 07:59:02;;;;;;;9.43;6.63;;;10.50;99.90;;;;;;5050968;28;20079;-72
2022/10/01 08:01:30;;;;;;;11.40;6.50;;;10.50;99.90;;;;;;5051811;28;20033;-73
2022/10/01 08:03:56;;;;;;;14.07;7.63;;;10.50;99.90;;;;;;5051763;28;20022;-72
2022/10/01 08:06:21;;;;;;;13.68;8.23;;;10.60;99.90;;;;;;5051055;28;20033;-73
2022/10/01 08:08:48;;;;;;;16.77;8.77;;;10.60;99.90;;;;;;5051278;28;20028;-73
2022/10/01 08:11:16;;;;;;;15.50;8.77;;;10.70;99.90;;;;;;5052217;28;20469;-73
2022/10/01 08:13:46;;;;;;;19.92;8.52;;;10.70;99.90;;;;;;5051847;28;20452;-72
2022/10/01 08:16:11;;;;;;;15.85;9.73;;;10.80;99.90;;;;;;5053135;28;20035;-74
2022/10/01 08:18:39;;;;;;;15.10;9.27;;;10.70;99.90;;;;;;5050565;28;20025;-74
2022/10/01 08:21:05;;;;;;;15.32;9.55;;;10.90;99.90;;;;;;5049915;28;20029;-74
2022/10/01 08:23:32;;;;;;;16.88;9.55;;;10.90;99.90;;;;;;5049317;28;20044;-72
2022/10/01 08:26:04;;;;;;;16.52;9.90;;;10.90;99.90;;;;;;5051482;28;20018;-73
2022/10/01 08:28:29;;;;;;;15.70;9.13;;;11.00;99.90;;;;;;5049137;28;20339;-73
2022/10/01 08:30:55;;;;;;;15.13;10.00;;;11.00;99.90;;;;;;5051361;28;20029;-72
2022/10/01 08:33:21;;;;;;;16.42;9.98;;;11.00;99.90;;;;;;5052048;28;20047;-72
2022/10/01 08:35:47;;;;;;;17.05;9.60;;;11.10;99.90;;;;;;5053243;28;20085;-72
2022/10/01 08:38:14;;;;;;;20.90;11.60;;;11.10;99.90;;;;;;5050934;28;20059;-74
2022/10/01 08:40:48;;;;;;;19.63;10.70;;;11.10;99.90;;;;;;5053078;28;20028;-74
2022/10/01 08:43:26;;;;;;;17.52;11.05;;;11.20;99.90;;;;;;5053687;28;20025;-75
2022/10/01 08:45:54;;;;;;;19.38;11.63;;;11.20;99.90;;;;;;5053704;28;20056;-74
2022/10/01 08:48:52;;;;;;;18.10;11.07;;;11.30;99.90;;;;;;5055013;28;20018;-71
2022/10/01 08:51:40;;;;;;;21.75;13.13;;;11.30;99.90;;;;;;5055579;28;20048;-76
2022/10/01 08:54:31;;;;;;;20.63;13.05;;;11.40;99.90;;;;;;5055443;28;20029;-73
2022/10/01 08:57:00;;;;;;;21.23;11.63;;;11.40;99.90;;;;;;5058862;28;20053;-74
2022/10/01 08:59:31;;;;;;;24.38;14.32;;;11.50;99.90;;;;;;5074844;28;20017;-74
2022/10/01 09:01:58;;;;;;;25.48;13.32;;;11.50;99.90;;;;;;5074765;28;20242;-73
2022/10/01 09:04:25;;;;;;;21.90;12.95;;;11.60;99.90;;;;;;5078888;28;20598;-76
2022/10/01 09:07:03;;;;;;;24.38;13.63;;;11.60;99.90;;;;;;5058696;28;20566;-73
2022/10/01 09:09:44;;;;;;;26.35;13.77;;;11.70;99.90;;;;;;5073861;28;20044;-74
2022/10/01 09:12:29;;;;;;;22.65;14.00;;;11.70;99.90;;;;;;5075183;28;20048;-75
2022/10/01 09:15:15;;;;;;;22.92;13.15;;;11.80;99.90;;;;;;5076860;28;20040;-76
2022/10/01 09:17:41;;;;;;;23.48;13.90;;;11.80;99.90;;;;;;5078464;28;20031;-77
2022/10/01 09:20:40;;;;;;;25.73;13.73;;;11.90;99.90;;;;;;5073506;28;20028;-73
2022/10/01 09:23:27;;;;;;;23.30;13.55;;;12.00;99.90;;;;;;5050602;28;20056;-75
2022/10/01 09:25:53;;;;;;;24.05;13.25;;;12.00;99.90;;;;;;5075009;28;20041;-74
2022/10/01 09:28:31;;;;;;;28.90;16.02;;;12.00;99.90;;;;;;5074531;28;20063;-73
2022/10/01 09:31:05;;;;;;;28.98;15.85;;;12.10;99.90;;;;;;5076520;28;21101;-74
2022/10/01 09:33:38;;;;;;;25.33;14.15;;;12.10;99.90;;;;;;5072407;28;20029;-77
2022/10/01 09:36:10;;;;;;;20.88;11.80;;;12.20;99.90;;;;;;5076425;28;20033;-77
2022/10/01 09:38:40;;;;;;;22.33;12.30;;;12.20;99.90;;;;;;5075090;28;20020;-75
2022/10/01 09:41:09;;;;;;;23.33;10.85;;;12.30;99.90;;;;;;5074361;28;20025;-76
2022/10/01 09:43:38;;;;;;;20.42;11.93;;;12.30;99.90;;;;;;5072563;28;20024;-73
2022/10/01 09:46:11;;;;;;;17.65;10.43;;;12.40;99.90;;;;;;5074000;28;20055;-73
2022/10/01 09:48:45;;;;;;;16.35;10.15;;;12.40;99.90;;;;;;5074397;28;20020;-74
2022/10/01 09:51:16;;;;;;;15.88;9.57;;;12.50;99.90;;;;;;5074761;28;20025;-75
2022/10/01 09:53:53;;;;;;;15.43;8.82;;;12.60;99.90;;;;;;5073322;28;20108;-74
2022/10/01 09:56:27;;;;;;;17.90;8.55;;;12.80;99.90;;;;;;5072370;28;20052;-75
2022/10/01 09:58:58;;;;;;;16.88;8.85;;;12.90;99.90;;;;;;5071510;28;20025;-75
2022/10/01 10:01:52;;;;;;;14.63;7.95;;;13.00;99.90;;;;;;5075528;28;20028;-75
2022/10/01 10:04:22;;;;;;;20.48;7.10;;;13.20;99.90;;;;;;5057152;28;20035;-72
2022/10/01 10:06:49;;;;;;;14.15;7.22;;;13.30;99.90;;;;;;5074340;28;20123;-74
2022/10/01 10:09:19;;;;;;;16.35;7.88;;;13.40;99.90;;;;;;5073840;28;21352;-76
2022/10/01 10:11:45;;;;;;;18.67;8.32;;;13.50;99.90;;;;;;5073715;28;20102;-75
2022/10/01 10:14:23;;;;;;;18.25;8.90;;;13.50;99.90;;;;;;5055870;28;20025;-74
2022/10/01 10:16:50;;;;;;;23.67;9.98;;;13.60;99.90;;;;;;5073405;28;20043;-73
2022/10/01 10:19:48;;;;;;;17.92;6.38;;;13.70;99.90;;;;;;5072192;28;20032;-76
2022/10/01 10:22:23;;;;;;;23.08;6.15;;;14.00;99.90;;;;;;5073246;28;20053;-74
2022/10/01 10:24:51;;;;;;;11.50;5.32;;;14.10;99.90;;;;;;5073291;28;20017;-74
2022/10/01 10:27:35;;;;;;;7.18;4.35;;;14.20;99.90;;;;;;5072154;28;20017;-78
2022/10/01 10:30:14;;;;;;;10.57;5.03;;;14.40;99.90;;;;;;5072881;28;20035;-75
2022/10/01 10:32:41;;;;;;;19.65;4.95;;;14.50;99.90;;;;;;5072608;28;20032;-78
2022/10/01 10:35:14;;;;;;;13.05;4.30;;;14.50;99.90;;;;;;5073130;28;20036;-76
2022/10/01 10:37:52;;;;;;;15.77;4.05;;;14.70;99.90;;;;;;5072734;28;20024;-75
2022/10/01 10:40:39;;;;;;;11.85;3.72;;;14.80;99.90;;;;;;5071184;28;20558;-73
2022/10/01 10:43:05;;;;;;;6.82;3.30;;;15.00;99.90;;;;;;5072376;28;20464;-75
2022/10/01 10:45:37;;;;;;;6.28;3.10;;;15.10;99.90;;;;;;5072023;28;20048;-74
2022/10/01 10:48:13;;;;;;;10.85;3.30;;;15.20;99.90;;;;;;5071017;28;20040;-75
2022/10/01 10:50:41;;;;;;;12.90;3.15;;;15.10;99.90;;;;;;5072148;28;20025;-75
2022/10/01 10:53:25;;;;;;;4.68;2.50;;;15.10;99.90;;;;;;5071204;28;20012;-76
2022/10/01 10:55:58;;;;;;;3.85;2.50;;;15.10;99.90;;;;;;5072153;28;20032;-73
2022/10/01 10:58:25;;;;;;;11.68;2.83;;;15.10;99.90;;;;;;5072079;28;20036;-74
2022/10/01 11:00:54;;;;;;;4.72;2.78;;;15.10;99.90;;;;;;5069071;28;20065;-77
2022/10/01 11:03:24;;;;;;;5.90;2.75;;;15.10;99.90;;;;;;5072559;28;20124;-78
2022/10/01 11:05:51;;;;;;;8.10;2.75;;;15.00;99.90;;;;;;5071948;28;20052;-75
2022/10/01 11:08:26;;;;;;;8.80;2.45;;;15.10;99.90;;;;;;5069812;28;20976;-75
2022/10/01 11:11:13;;;;;;;13.60;5.50;;;15.20;99.90;;;;;;5071253;28;20032;-78
2022/10/01 11:13:51;;;;;;;10.52;4.30;;;15.30;99.90;;;;;;5072670;28;20048;-76
2022/10/01 11:16:39;;;;;;;23.23;8.90;;;15.40;99.90;;;;;;5071917;28;20036;-76
2022/10/01 11:19:13;;;;;;;14.85;3.42;;;15.50;99.90;;;;;;5070903;28;20033;-71
2022/10/01 11:22:06;;;;;;;5.68;2.58;;;15.60;99.90;;;;;;5070851;28;20083;-78
2022/10/01 11:24:38;;;;;;;7.68;2.63;;;15.60;99.90;;;;;;5071497;28;20036;-77
2022/10/01 11:27:16;;;;;;;14.20;2.85;;;15.70;99.90;;;;;;5071291;28;20419;-75
2022/10/01 11:30:04;;;;;;;5.53;2.05;;;15.70;99.90;;;;;;5069044;28;20037;-72
2022/10/01 11:32:39;;;;;;;8.90;1.90;;;15.60;99.90;;;;;;5069838;28;20100;-72
2022/10/01 11:35:31;;;;;;;5.22;1.95;;;15.70;99.90;;;;;;5071665;28;20027;-74
2022/10/01 11:38:00;;;;;;;7.30;2.33;;;15.90;99.90;;;;;;5070085;28;20040;-77
2022/10/01 11:40:40;;;;;;;13.07;2.13;;;16.00;99.90;;;;;;5071105;28;20025;-77
2022/10/01 11:43:21;;;;;;;6.03;2.00;;;15.90;99.90;;;;;;5071018;28;20033;-77
2022/10/01 11:45:56;;;;;;;2.70;1.65;;;15.80;99.90;;;;;;5071771;28;20506;-74
2022/10/01 11:48:31;;;;;;;6.07;1.65;;;15.80;99.90;;;;;;5071457;28;20059;-74
2022/10/01 11:51:07;;;;;;;6.28;2.08;;;15.70;99.90;;;;;;5072849;28;20036;-75
2022/10/01 11:53:44;;;;;;;3.38;1.60;;;15.60;99.90;;;;;;5070301;28;20079;-75
2022/10/01 11:59:38;;;;;;;13.52;3.95;;;15.40;99.90;;;;;;5069373;28;20063;-74
2022/10/01 12:02:24;;;;;;;6.03;2.53;;;15.20;99.90;;;;;;5061935;28;20488;-75
2022/10/01 12:05:15;;;;;;;10.90;3.05;;;15.10;99.90;;;;;;5071279;28;20056;-74
2022/10/01 12:07:50;;;;;;;9.32;3.50;;;15.00;99.90;;;;;;5071156;28;20052;-75
2022/10/01 12:10:16;;;;;;;12.45;4.05;;;15.00;99.90;;;;;;5067680;28;20104;-76
2022/10/01 12:12:59;;;;;;;14.40;4.22;;;14.90;99.90;;;;;;5069599;28;20025;-76
2022/10/01 12:15:42;;;;;;;11.35;3.45;;;14.90;99.90;;;;;;5068026;28;20036;-74
2022/10/01 12:18:22;;;;;;;12.23;3.03;;;14.90;99.90;;;;;;5070332;28;20064;-74
2022/10/01 12:20:54;;;;;;;9.35;2.63;;;14.80;99.90;;;;;;5072820;28;20048;-73
2022/10/01 12:23:25;;;;;;;7.28;2.80;;;14.70;99.90;;;;;;5074330;28;20036;-75
2022/10/01 12:26:26;;;;;;;10.27;2.88;;;14.70;99.90;;;;;;5073872;28;20035;-73
2022/10/01 12:29:14;;;;;;;6.38;2.67;;;14.60;99.90;;;;;;5072565;28;20020;-74
2022/10/01 12:31:45;;;;;;;15.98;2.17;;;14.50;99.90;;;;;;5075103;28;20029;-72
2022/10/01 12:34:30;;;;;;;3.28;1.55;;;14.30;99.90;;;;;;5073670;28;20037;-73
2022/10/01 12:37:09;;;;;;;7.47;2.00;;;13.90;99.90;;;;;;5071989;28;20055;-74
2022/10/01 12:40:02;;;;;;;4.63;1.52;;;13.40;99.90;;;;;;5075701;28;20037;-74
2022/10/01 12:42:47;;;;;;;5.53;1.83;;;13.10;99.90;;;;;;5072735;28;20031;-71
2022/10/01 12:45:39;;;;;;;2.92;0.98;;;12.90;99.90;;;;;;5075445;28;20047;-73
2022/10/01 12:48:15;;;;;;;3.85;1.38;;;12.80;99.90;;;;;;5074288;28;20025;-72
2022/10/01 12:51:19;;;;;;;7.03;1.83;;;12.60;99.90;;;;;;5075287;28;20033;-74
2022/10/01 12:54:09;;;;;;;7.70;2.10;;;12.50;99.90;;;;;;5073134;28;20024;-73
2022/10/01 12:56:44;;;;;;;5.70;1.80;;;12.50;99.90;;;;;;5072676;28;20060;-72
2022/10/01 12:59:43;;;;;;;3.00;1.70;;;12.50;99.90;;;;;;5074001;28;20033;-73
2022/10/01 13:02:33;;;;;;;8.50;4.63;;;12.50;99.90;;;;;;5039813;28;20082;-73
2022/10/01 13:05:26;;;;;;;18.58;7.10;;;12.60;99.90;;;;;;5072804;28;20039;-73